Time;durP1;ratioP1;P1;durP2;ratioP2;P2;SDS_P1;SDS_P2;PMS_P1;PMS_P2;Temp;Humidity;BMP_temperature;BMP_pressure;BME280_temperature;BME280_humidity;BME280_pressure;Samples;Min_cycle;Max_cycle;Signal;HPM_P1;HPM_P2
2022/01/25 00:10:25;;;;;;;17.58;6.85;;;26.00;99.90;;;;;;5014420;28;20022;-75
2022/01/25 00:28:28;;;;;;;15.02;7.57;;;26.30;99.90;;;;;;5025164;28;20022;-73
2022/01/25 00:31:02;;;;;;;19.88;11.30;;;26.30;99.90;;;;;;5025207;28;20052;-72
2022/01/25 00:33:31;;;;;;;24.50;10.80;;;26.40;99.90;;;;;;5033356;28;20091;-72
2022/01/25 00:35:58;;;;;;;19.05;9.15;;;26.50;99.90;;;;;;5033482;28;20049;-73
2022/01/25 00:38:25;;;;;;;16.02;7.03;;;26.50;99.90;;;;;;5033693;28;20097;-69
2022/01/25 00:40:51;;;;;;;14.43;6.20;;;26.50;99.90;;;;;;5033559;28;20405;-71
2022/01/25 00:43:21;;;;;;;11.02;6.05;;;26.50;99.90;;;;;;5033203;28;20404;-71
2022/01/25 00:45:50;;;;;;;18.55;8.73;;;26.50;99.90;;;;;;5033934;28;20045;-70
2022/01/25 00:48:30;;;;;;;21.52;8.93;;;26.50;99.90;;;;;;5033569;28;20112;-69
2022/01/25 00:51:15;;;;;;;21.58;10.13;;;26.50;99.90;;;;;;5033687;28;20067;-69
2022/01/25 00:56:22;;;;;;;27.60;14.10;;;26.50;99.90;;;;;;5033413;28;20028;-71
2022/01/25 00:58:49;;;;;;;18.30;13.63;;;26.50;99.90;;;;;;5033586;28;20072;-70
2022/01/25 01:01:18;;;;;;;22.83;17.05;;;26.40;99.90;;;;;;5033665;28;20386;-71
2022/01/25 01:03:45;;;;;;;30.85;18.10;;;26.40;99.90;;;;;;5033234;28;20029;-70
2022/01/25 01:06:12;;;;;;;25.98;17.02;;;26.40;99.90;;;;;;5033469;28;20021;-70
2022/01/25 01:08:39;;;;;;;25.67;16.05;;;26.40;99.90;;;;;;5033474;28;20116;-69
2022/01/25 01:11:10;;;;;;;26.02;17.63;;;26.50;99.90;;;;;;5033574;28;20107;-72
2022/01/25 01:29:35;;;;;;;41.55;32.85;;;26.60;99.90;;;;;;5037085;28;20026;-71
2022/01/25 01:35:07;;;;;;;64.82;51.60;;;26.60;99.90;;;;;;5036900;28;20544;-73
2022/01/25 01:37:49;;;;;;;52.53;36.55;;;26.60;99.90;;;;;;5035845;28;20032;-73
2022/01/25 01:40:38;;;;;;;45.67;33.75;;;26.70;99.90;;;;;;5036140;28;20026;-72
2022/01/25 01:43:10;;;;;;;38.90;29.75;;;26.70;99.90;;;;;;5035526;28;20026;-72
2022/01/25 01:48:11;;;;;;;47.20;32.75;;;26.70;99.90;;;;;;5036837;28;20366;-72
2022/01/25 01:50:39;;;;;;;38.72;26.30;;;26.70;99.90;;;;;;5036024;28;20018;-73
2022/01/25 01:53:07;;;;;;;34.83;24.65;;;26.70;99.90;;;;;;5036635;28;20026;-73
2022/01/25 01:55:35;;;;;;;32.97;24.48;;;26.70;99.90;;;;;;5032764;28;20449;-73
2022/01/25 01:58:02;;;;;;;39.13;26.50;;;26.70;99.90;;;;;;5021042;28;20037;-71
2022/01/25 02:00:37;;;;;;;40.85;27.05;;;26.70;99.90;;;;;;5036472;28;20033;-72
2022/01/25 02:03:04;;;;;;;41.17;28.65;;;26.70;99.90;;;;;;5016841;28;20498;-73
2022/01/25 02:05:32;;;;;;;37.65;27.55;;;26.70;99.90;;;;;;5020130;28;20113;-74
2022/01/25 02:08:00;;;;;;;40.05;28.00;;;26.80;99.90;;;;;;5036738;28;20089;-74
2022/01/25 02:10:26;;;;;;;38.85;28.65;;;26.80;99.90;;;;;;5036506;28;20152;-74
2022/01/25 02:12:53;;;;;;;42.38;30.02;;;26.80;99.90;;;;;;5035780;28;20025;-72
2022/01/25 02:15:21;;;;;;;41.95;30.83;;;26.80;99.90;;;;;;5032620;28;20155;-74
2022/01/25 02:23:11;;;;;;;38.72;27.73;;;26.90;99.90;;;;;;5016711;28;20395;-72
2022/01/25 02:25:38;;;;;;;35.45;26.10;;;27.00;99.90;;;;;;5020839;28;20101;-73
2022/01/25 02:28:05;;;;;;;41.70;27.58;;;27.00;99.90;;;;;;5036363;28;20034;-73
2022/01/25 02:30:31;;;;;;;47.83;29.70;;;27.00;99.90;;;;;;5036056;28;20109;-73
2022/01/25 02:32:58;;;;;;;36.85;26.17;;;27.10;99.90;;;;;;5035754;28;20053;-74
2022/01/25 02:35:24;;;;;;;51.92;35.22;;;27.20;99.90;;;;;;5035364;28;20486;-71
2022/01/25 02:37:51;;;;;;;41.95;28.77;;;27.20;99.90;;;;;;5035827;28;20037;-72
2022/01/25 02:40:17;;;;;;;47.55;31.42;;;27.30;99.90;;;;;;5036025;28;20095;-75
2022/01/25 02:42:44;;;;;;;46.28;30.70;;;27.30;99.90;;;;;;5035918;28;20027;-74
2022/01/25 02:45:15;;;;;;;41.95;30.85;;;27.30;99.90;;;;;;5050865;28;20445;-73
2022/01/25 02:50:20;;;;;;;44.75;31.52;;;27.40;99.90;;;;;;5035266;28;20498;-73
2022/01/25 02:52:47;;;;;;;40.90;27.88;;;27.60;99.90;;;;;;5028163;28;20353;-73
2022/01/25 02:55:14;;;;;;;38.00;28.40;;;27.70;99.90;;;;;;5016886;28;20501;-75
2022/01/25 02:57:41;;;;;;;44.72;28.73;;;27.80;99.90;;;;;;5035939;28;20083;-71
2022/01/25 03:00:09;;;;;;;132.98;95.40;;;27.90;99.90;;;;;;5031106;28;20025;-71
2022/01/25 03:02:36;;;;;;;116.60;79.72;;;28.00;99.90;;;;;;5026235;28;20036;-71
2022/01/25 03:05:03;;;;;;;46.70;34.03;;;28.10;99.90;;;;;;5025632;28;20026;-73
2022/01/25 03:07:30;;;;;;;106.10;77.70;;;28.40;99.90;;;;;;5029676;28;20031;-73
2022/01/25 03:09:58;;;;;;;55.72;38.60;;;28.60;99.90;;;;;;5027304;28;20029;-73
2022/01/25 03:12:37;;;;;;;62.55;46.53;;;28.70;99.90;;;;;;5016066;28;20025;-73
2022/01/25 03:15:22;;;;;;;17.77;15.43;;;28.90;99.90;;;;;;5031434;28;20121;-75
2022/01/25 03:17:55;;;;;;;27.55;18.40;;;29.00;99.90;;;;;;5024702;28;20040;-72
2022/01/25 03:20:36;;;;;;;25.02;16.35;;;29.00;99.90;;;;;;5035186;28;20381;-74
2022/01/25 03:23:17;;;;;;;21.27;14.45;;;29.00;99.90;;;;;;5030304;28;20033;-76
2022/01/25 03:25:47;;;;;;;18.80;15.13;;;29.20;99.90;;;;;;5029312;28;20216;-78
2022/01/25 03:28:15;;;;;;;260.25;168.85;;;29.30;99.90;;;;;;5028757;28;20426;-76
2022/01/25 03:30:41;;;;;;;29.50;21.58;;;29.40;99.90;;;;;;5030809;28;20505;-78
2022/01/25 03:33:08;;;;;;;26.17;20.52;;;29.40;99.90;;;;;;5030104;28;20052;-76
2022/01/25 03:35:37;;;;;;;20.52;16.40;;;29.40;99.90;;;;;;5030987;28;20017;-77
2022/01/25 03:38:04;;;;;;;18.67;14.70;;;29.40;99.90;;;;;;5031708;28;20029;-75
2022/01/25 03:40:31;;;;;;;18.88;14.20;;;29.40;99.90;;;;;;5031415;28;20502;-74
2022/01/25 03:42:59;;;;;;;14.95;11.60;;;29.40;99.90;;;;;;5034162;28;20052;-77
2022/01/25 03:45:32;;;;;;;21.50;12.70;;;29.60;99.90;;;;;;5033270;28;20029;-77
2022/01/25 03:50:40;;;;;;;15.15;10.52;;;29.90;99.90;;;;;;5033285;28;20033;-75
2022/01/25 03:53:08;;;;;;;13.75;10.68;;;29.90;99.90;;;;;;5027987;28;20029;-76
2022/01/25 03:55:34;;;;;;;10.15;8.10;;;29.90;99.90;;;;;;5032653;28;20033;-74
2022/01/25 03:58:01;;;;;;;11.13;8.13;;;29.80;99.90;;;;;;5031769;28;20026;-71
2022/01/25 04:00:28;;;;;;;48.60;37.90;;;29.90;99.90;;;;;;5030194;28;20474;-73
2022/01/25 04:03:01;;;;;;;13.68;11.05;;;30.00;99.90;;;;;;5033303;28;20018;-74
2022/01/25 04:05:38;;;;;;;16.58;12.18;;;30.00;99.90;;;;;;5031561;28;20024;-75
2022/01/25 04:08:05;;;;;;;15.07;10.70;;;30.20;99.90;;;;;;5031453;28;20017;-74
2022/01/25 04:10:35;;;;;;;13.70;10.85;;;30.20;99.90;;;;;;5029754;28;20113;-75
2022/01/25 04:13:01;;;;;;;12.57;10.95;;;30.30;99.90;;;;;;5032890;28;20017;-71
2022/01/25 04:15:28;;;;;;;14.68;11.35;;;30.30;99.90;;;;;;5034238;28;20084;-75
2022/01/25 04:18:18;;;;;;;16.85;11.75;;;30.20;99.90;;;;;;5031524;28;20013;-74
2022/01/25 04:20:43;;;;;;;16.15;13.57;;;30.30;99.90;;;;;;5031205;28;20037;-73
2022/01/25 04:25:40;;;;;;;22.35;14.82;;;30.40;99.90;;;;;;5032066;28;20221;-75
2022/01/25 04:28:06;;;;;;;21.23;15.88;;;30.60;99.90;;;;;;5033274;28;20021;-74
2022/01/25 04:30:33;;;;;;;21.83;14.77;;;30.80;99.90;;;;;;5029422;28;20030;-77
2022/01/25 04:35:42;;;;;;;19.23;14.10;;;30.90;99.90;;;;;;5014606;28;20029;-73
2022/01/25 04:51:31;;;;;;;22.58;14.30;;;31.40;98.40;;;;;;5031005;28;20496;-74
2022/01/25 04:56:37;;;;;;;19.27;14.57;;;31.40;97.20;;;;;;5033084;28;20079;-76
2022/01/25 05:01:35;;;;;;;24.42;16.92;;;31.30;98.60;;;;;;5033224;28;20021;-74
2022/01/25 05:04:07;;;;;;;24.90;16.08;;;31.40;98.10;;;;;;5033105;28;20324;-75
2022/01/25 05:06:33;;;;;;;;;;;31.50;98.60;;;;;;5024485;28;20021;-75
2022/01/25 05:09:12;;;;;;;22.83;16.30;;;31.50;98.00;;;;;;5026171;28;20259;-75
2022/01/25 05:11:47;;;;;;;21.63;16.73;;;31.40;98.10;;;;;;5030392;28;20029;-75
2022/01/25 05:14:19;;;;;;;22.60;16.60;;;31.20;98.50;;;;;;5030468;28;20031;-74
2022/01/25 05:16:53;;;;;;;29.48;19.15;;;31.20;98.80;;;;;;5029882;28;20029;-74
2022/01/25 05:22:03;;;;;;;24.00;18.83;;;31.20;99.00;;;;;;5027155;28;20061;-74
2022/01/25 05:22:20;;;;;;;29.58;21.63;;;31.20;98.70;;;;;;5018737;28;20065;-75
2022/01/25 05:24:48;;;;;;;45.58;38.83;;;31.20;98.80;;;;;;5013810;28;20030;-77
2022/01/25 05:27:17;;;;;;;26.58;18.15;;;31.40;98.70;;;;;;5013985;28;20068;-78
2022/01/25 05:29:44;;;;;;;14.90;13.30;;;31.60;97.90;;;;;;5022422;28;20025;-75
2022/01/25 05:32:11;;;;;;;15.50;13.40;;;31.60;97.00;;;;;;5025758;28;20466;-74
2022/01/25 05:34:37;;;;;;;19.27;14.15;;;31.50;96.90;;;;;;5028244;28;20034;-73
2022/01/25 05:37:06;;;;;;;16.58;14.07;;;31.40;97.10;;;;;;5030052;28;20076;-76
2022/01/25 05:39:35;;;;;;;21.63;14.85;;;31.40;96.60;;;;;;5027984;28;20033;-76
2022/01/25 05:47:27;;;;;;;18.80;14.25;;;31.60;95.40;;;;;;5027363;28;20443;-78
2022/01/25 05:49:53;;;;;;;19.90;14.25;;;31.60;96.00;;;;;;5022080;28;20030;-75
2022/01/25 05:52:20;;;;;;;31.30;23.13;;;31.40;95.50;;;;;;5024576;28;20386;-77
2022/01/25 05:54:47;;;;;;;19.17;13.40;;;31.50;96.80;;;;;;5022568;28;20057;-76
2022/01/25 05:57:13;;;;;;;25.40;18.17;;;31.50;96.60;;;;;;5024762;28;20022;-74
2022/01/25 05:59:40;;;;;;;25.65;20.38;;;31.60;96.80;;;;;;5023549;28;20032;-75
2022/01/25 06:02:07;;;;;;;34.67;27.65;;;31.70;97.10;;;;;;5023285;28;20021;-73
2022/01/25 06:04:33;;;;;;;19.83;13.70;;;31.80;96.70;;;;;;5023948;28;20018;-73
2022/01/25 06:07:00;;;;;;;17.80;13.43;;;31.70;96.10;;;;;;5027994;28;20375;-73
2022/01/25 06:09:27;;;;;;;15.73;11.98;;;31.70;95.20;;;;;;5025973;28;20032;-73
2022/01/25 06:11:55;;;;;;;13.93;11.15;;;31.70;94.90;;;;;;5027104;28;20026;-74
2022/01/25 06:14:22;;;;;;;22.27;13.27;;;31.70;94.90;;;;;;5022230;28;20121;-73
2022/01/25 06:16:48;;;;;;;16.35;11.77;;;31.80;94.80;;;;;;5016442;28;20113;-73
2022/01/25 06:19:15;;;;;;;17.17;14.85;;;31.90;94.60;;;;;;5016252;28;20022;-72
2022/01/25 06:21:41;;;;;;;41.33;31.70;;;31.90;94.00;;;;;;5015923;28;20036;-71
2022/01/25 06:24:08;;;;;;;19.23;13.95;;;32.00;93.70;;;;;;5020851;28;20101;-72
2022/01/25 06:26:34;;;;;;;15.60;12.75;;;32.00;94.90;;;;;;5026358;28;20518;-72
2022/01/25 06:29:01;;;;;;;70.15;52.33;;;32.20;94.50;;;;;;5036056;28;20440;-72
2022/01/25 06:31:31;;;;;;;17.48;12.27;;;32.20;94.10;;;;;;5036226;28;20033;-72
2022/01/25 06:33:58;;;;;;;18.70;13.02;;;32.20;93.90;;;;;;5036320;28;20088;-74
2022/01/25 06:36:25;;;;;;;24.92;12.95;;;32.10;94.10;;;;;;5035489;28;20433;-71
2022/01/25 06:38:52;;;;;;;16.23;11.35;;;32.00;94.60;;;;;;5036779;28;20112;-73
2022/01/25 06:41:18;;;;;;;14.73;11.90;;;31.90;94.40;;;;;;5036256;28;20033;-73
2022/01/25 06:43:45;;;;;;;14.73;12.43;;;31.80;94.80;;;;;;5036190;28;20037;-72
2022/01/25 06:46:12;;;;;;;18.73;13.20;;;31.80;94.80;;;;;;5035881;28;20037;-71
2022/01/25 06:48:39;;;;;;;15.27;11.98;;;31.80;95.20;;;;;;5035823;28;20502;-71
2022/01/25 06:51:05;;;;;;;17.70;12.90;;;31.90;94.80;;;;;;5035879;28;20136;-72
2022/01/25 06:53:32;;;;;;;17.27;12.93;;;32.00;94.60;;;;;;5034946;28;20026;-72
2022/01/25 06:55:58;;;;;;;14.80;11.70;;;32.00;94.50;;;;;;5034166;28;20386;-72
2022/01/25 06:58:25;;;;;;;145.32;111.88;;;32.10;94.40;;;;;;5034036;28;20022;-71
2022/01/25 07:00:52;;;;;;;39.97;28.50;;;32.10;94.40;;;;;;5035109;28;20440;-71
2022/01/25 07:03:18;;;;;;;16.02;12.73;;;32.20;94.60;;;;;;5034560;28;20048;-71
2022/01/25 07:05:45;;;;;;;12.45;11.05;;;32.40;94.30;;;;;;5035330;28;20017;-72
2022/01/25 07:08:12;;;;;;;17.67;11.60;;;32.40;94.50;;;;;;5035740;28;20032;-71
2022/01/25 07:10:38;;;;;;;16.00;12.25;;;32.40;94.30;;;;;;5035431;28;20043;-65
2022/01/25 07:13:05;;;;;;;15.57;12.18;;;32.50;94.20;;;;;;5035500;28;20057;-66
2022/01/25 07:15:31;;;;;;;18.73;11.50;;;32.60;94.10;;;;;;5035176;28;20029;-66
2022/01/25 07:17:58;;;;;;;17.08;11.93;;;32.60;93.10;;;;;;5034660;28;20029;-66
2022/01/25 07:20:25;;;;;;;17.98;11.65;;;32.60;93.50;;;;;;5032387;28;20029;-66
2022/01/25 07:22:52;;;;;;;13.57;11.02;;;32.60;93.10;;;;;;5035148;28;20109;-66
2022/01/25 07:25:19;;;;;;;16.45;11.82;;;32.50;93.00;;;;;;5035191;28;20022;-65
2022/01/25 07:27:46;;;;;;;21.63;13.00;;;32.40;93.80;;;;;;5035108;28;20449;-65
2022/01/25 07:30:13;;;;;;;15.73;11.85;;;32.50;93.70;;;;;;5030667;28;20036;-66
2022/01/25 07:32:39;;;;;;;112.85;88.40;;;32.50;93.20;;;;;;5028082;28;20026;-66
2022/01/25 07:35:06;;;;;;;17.83;13.88;;;32.50;93.60;;;;;;5026951;28;20061;-66
2022/01/25 07:37:32;;;;;;;18.73;14.93;;;32.60;93.50;;;;;;5014970;28;20026;-65
2022/01/25 07:39:59;;;;;;;30.20;22.95;;;32.50;93.30;;;;;;5014745;28;20104;-65
2022/01/25 07:42:28;;;;;;;17.77;14.63;;;32.50;92.30;;;;;;5014582;28;20502;-65
2022/01/25 07:44:56;;;;;;;17.83;13.95;;;32.50;92.50;;;;;;5014788;28;20032;-65
2022/01/25 07:47:23;;;;;;;18.10;13.80;;;32.50;92.60;;;;;;5017435;28;20084;-66
2022/01/25 07:49:50;;;;;;;17.05;12.80;;;32.60;93.50;;;;;;5034424;28;20029;-66
2022/01/25 07:52:17;;;;;;;23.77;13.05;;;32.50;94.00;;;;;;5034327;28;20034;-65
2022/01/25 07:54:44;;;;;;;23.42;12.57;;;32.50;94.40;;;;;;5034284;28;20063;-66
2022/01/25 07:57:10;;;;;;;18.80;14.43;;;32.40;94.80;;;;;;5034390;28;20037;-66
2022/01/25 07:59:37;;;;;;;22.13;12.48;;;32.40;94.90;;;;;;5034373;28;20398;-65
2022/01/25 08:02:04;;;;;;;20.05;12.60;;;32.30;95.10;;;;;;5034299;28;20530;-65
2022/01/25 08:04:31;;;;;;;19.85;13.02;;;32.40;94.80;;;;;;5034013;28;20462;-67
2022/01/25 08:06:57;;;;;;;23.15;14.48;;;32.30;94.20;;;;;;5034189;28;20448;-76
2022/01/25 08:09:24;;;;;;;19.85;14.68;;;32.20;94.60;;;;;;5033916;28;20021;-73
2022/01/25 08:11:50;;;;;;;20.85;13.93;;;32.10;94.80;;;;;;5034051;28;20223;-70
2022/01/25 08:14:18;;;;;;;21.27;14.00;;;32.00;94.90;;;;;;5034327;28;20536;-71
2022/01/25 08:16:47;;;;;;;18.33;12.25;;;32.00;95.20;;;;;;5033776;28;20386;-74
2022/01/25 08:19:14;;;;;;;17.52;13.00;;;31.90;95.20;;;;;;5033372;28;20021;-73
2022/01/25 08:21:41;;;;;;;20.83;14.63;;;31.80;95.60;;;;;;5013293;28;20391;-74
2022/01/25 08:24:10;;;;;;;22.13;14.93;;;31.80;95.40;;;;;;5018752;28;20454;-74
2022/01/25 08:26:37;;;;;;;21.83;14.95;;;31.80;95.30;;;;;;5034137;28;20072;-75
2022/01/25 08:29:05;;;;;;;22.67;14.32;;;31.80;94.70;;;;;;5034094;28;20041;-74
2022/01/25 08:31:32;;;;;;;18.55;13.73;;;31.70;95.10;;;;;;5033781;28;20083;-74
2022/01/25 08:33:59;;;;;;;16.60;10.98;;;31.60;95.50;;;;;;5034156;28;20060;-74
2022/01/25 08:36:27;;;;;;;17.70;10.57;;;31.50;95.30;;;;;;5032981;28;20029;-73
2022/01/25 08:38:54;;;;;;;21.95;14.23;;;31.40;95.20;;;;;;5033740;28;20049;-72
2022/01/25 08:41:21;;;;;;;22.15;13.18;;;31.30;95.20;;;;;;5033706;28;20053;-74
2022/01/25 08:43:49;;;;;;;23.80;13.70;;;31.10;94.50;;;;;;5030153;28;20021;-73
2022/01/25 08:46:16;;;;;;;18.98;12.40;;;30.90;95.30;;;;;;5024980;28;20425;-73
2022/01/25 08:48:45;;;;;;;23.48;12.70;;;30.80;96.00;;;;;;5033675;28;20040;-73
2022/01/25 08:51:13;;;;;;;22.45;15.35;;;30.70;96.40;;;;;;5033593;28;20026;-74
2022/01/25 08:53:40;;;;;;;115.38;79.43;;;30.70;97.80;;;;;;5033366;28;20568;-74
2022/01/25 08:56:06;;;;;;;57.83;42.97;;;30.80;98.00;;;;;;5033733;28;20021;-73
2022/01/25 08:58:33;;;;;;;53.78;38.78;;;30.80;97.90;;;;;;5033712;28;20028;-73
2022/01/25 09:01:00;;;;;;;19.75;13.40;;;30.70;97.90;;;;;;5033495;28;20100;-74
2022/01/25 09:03:26;;;;;;;28.63;14.98;;;30.80;98.10;;;;;;5033472;28;20021;-73
2022/01/25 09:05:54;;;;;;;33.97;21.38;;;30.90;97.90;;;;;;5033077;28;20028;-73
2022/01/25 09:08:27;;;;;;;1320.70;880.25;;;30.90;98.00;;;;;;5033373;28;20024;-69
2022/01/25 09:10:58;;;;;;;1999.90;999.90;;;30.80;97.60;;;;;;5024943;28;20040;-68
2022/01/25 09:13:25;;;;;;;1999.90;999.90;;;30.80;96.90;;;;;;5023248;28;20030;-67
2022/01/25 09:15:52;;;;;;;1855.10;999.90;;;30.90;95.20;;;;;;5024621;28;20117;-68
2022/01/25 09:18:19;;;;;;;1330.85;909.58;;;31.00;95.10;;;;;;5033105;28;20486;-68
2022/01/25 09:20:45;;;;;;;883.70;623.45;;;31.00;93.60;;;;;;5028108;28;20034;-67
2022/01/25 09:23:15;;;;;;;688.30;551.10;;;30.90;93.30;;;;;;5013567;28;20026;-68
2022/01/25 09:25:42;;;;;;;629.00;493.00;;;30.80;92.00;;;;;;5013606;28;20030;-70
2022/01/25 09:28:08;;;;;;;850.28;667.30;;;30.70;91.30;;;;;;5013327;28;20022;-69
2022/01/25 09:30:35;;;;;;;426.63;332.35;;;30.70;91.20;;;;;;5013075;28;20026;-69
2022/01/25 09:33:02;;;;;;;845.05;675.42;;;30.70;91.80;;;;;;5018983;28;20527;-68
2022/01/25 09:35:28;;;;;;;489.88;412.92;;;30.80;92.20;;;;;;5032479;28;20132;-69
2022/01/25 09:37:55;;;;;;;417.08;326.42;;;30.80;92.20;;;;;;5031714;28;20021;-71
2022/01/25 09:40:22;;;;;;;161.38;114.25;;;30.80;92.20;;;;;;5034012;28;20386;-72
2022/01/25 09:42:52;;;;;;;550.97;363.80;;;30.70;93.00;;;;;;5017214;28;20516;-70
2022/01/25 09:45:19;;;;;;;378.10;261.30;;;30.70;93.30;;;;;;5017098;28;20076;-71
2022/01/25 09:47:47;;;;;;;236.23;161.75;;;30.70;94.30;;;;;;5015865;28;20026;-71
2022/01/25 09:50:14;;;;;;;400.73;291.55;;;30.70;94.90;;;;;;5016901;28;20032;-69
2022/01/25 09:52:43;;;;;;;388.80;255.50;;;30.70;95.50;;;;;;5016874;28;20375;-69
2022/01/25 09:55:14;;;;;;;465.67;304.15;;;30.70;96.20;;;;;;5016886;28;20076;-69
2022/01/25 09:57:42;;;;;;;506.42;388.42;;;30.60;96.10;;;;;;5025455;28;20033;-69
2022/01/25 10:00:11;;;;;;;671.50;522.78;;;30.60;96.60;;;;;;5036347;28;20029;-69
2022/01/25 10:02:45;;;;;;;401.15;301.77;;;30.70;96.80;;;;;;5035677;28;20017;-69
2022/01/25 10:05:16;;;;;;;190.90;125.57;;;30.60;97.30;;;;;;5035626;28;20112;-69
2022/01/25 10:07:43;;;;;;;405.40;240.75;;;30.70;97.40;;;;;;5016807;28;20017;-70
2022/01/25 10:10:10;;;;;;;160.10;89.35;;;30.70;97.60;;;;;;5021594;28;20032;-69
2022/01/25 10:12:36;;;;;;;49.03;32.33;;;30.70;97.20;;;;;;5030475;28;20028;-69
2022/01/25 10:15:06;;;;;;;46.88;29.55;;;30.70;96.50;;;;;;5024752;28;20152;-68
2022/01/25 10:17:34;;;;;;;54.42;31.00;;;30.70;96.00;;;;;;5016841;28;20053;-68
2022/01/25 10:20:01;;;;;;;78.97;44.95;;;30.50;96.40;;;;;;5016278;28;20026;-69
2022/01/25 10:22:40;;;;;;;113.60;54.63;;;30.50;96.20;;;;;;5016314;28;20061;-70
2022/01/25 10:25:07;;;;;;;443.15;306.85;;;30.30;96.50;;;;;;5033488;28;20022;-69
2022/01/25 10:30:38;;;;;;;145.25;98.05;;;30.20;97.70;;;;;;5035018;28;20087;-68
2022/01/25 10:33:29;;;;;;;88.32;65.18;;;30.20;97.70;;;;;;5036169;28;20116;-67
2022/01/25 10:35:59;;;;;;;158.25;114.40;;;30.10;98.30;;;;;;5034345;28;20033;-70
2022/01/25 10:38:28;;;;;;;66.80;48.03;;;30.20;98.30;;;;;;5035847;28;20079;-69
2022/01/25 10:41:04;;;;;;;59.55;42.70;;;30.10;98.40;;;;;;5035674;28;20367;-71
2022/01/25 10:43:31;;;;;;;103.32;75.38;;;30.20;98.60;;;;;;5035229;28;20120;-71
2022/01/25 10:46:10;;;;;;;114.05;83.60;;;30.10;98.50;;;;;;5035942;28;20021;-70
2022/01/25 10:48:39;;;;;;;50.97;37.20;;;30.20;98.70;;;;;;5016108;28;20034;-70
2022/01/25 10:51:13;;;;;;;44.30;28.10;;;30.10;98.90;;;;;;5030731;28;20024;-70
2022/01/25 10:53:40;;;;;;;53.03;34.03;;;30.10;98.80;;;;;;5023766;28;20026;-70
2022/01/25 10:56:07;;;;;;;65.97;43.10;;;30.10;98.70;;;;;;5028889;28;20025;-69
2022/01/25 10:58:40;;;;;;;55.33;39.85;;;30.00;98.70;;;;;;5015885;28;20060;-70
2022/01/25 11:01:08;;;;;;;34.65;23.63;;;30.00;99.10;;;;;;5017347;28;20497;-69
2022/01/25 11:03:41;;;;;;;40.72;23.90;;;29.90;99.00;;;;;;5027672;28;20022;-67
2022/01/25 11:06:10;;;;;;;32.63;21.55;;;29.90;98.80;;;;;;5023068;28;20021;-67
2022/01/25 11:08:38;;;;;;;34.30;22.05;;;29.90;99.50;;;;;;5035610;28;20425;-67
2022/01/25 11:11:09;;;;;;;44.70;26.65;;;29.90;99.50;;;;;;5035644;28;20381;-66
2022/01/25 11:13:39;;;;;;;48.38;27.75;;;29.80;98.60;;;;;;5035479;28;20100;-67
2022/01/25 11:16:08;;;;;;;52.10;28.65;;;29.70;99.50;;;;;;5035407;28;20028;-66
2022/01/25 11:18:37;;;;;;;51.38;31.98;;;29.70;99.60;;;;;;5034789;28;20030;-66
2022/01/25 11:21:08;;;;;;;72.07;42.95;;;29.60;99.30;;;;;;5034879;28;20052;-66
2022/01/25 11:23:37;;;;;;;48.28;30.73;;;29.60;99.60;;;;;;5033176;28;20097;-67
2022/01/25 11:26:06;;;;;;;37.75;23.65;;;29.50;99.50;;;;;;5015515;28;20072;-68
2022/01/25 11:28:34;;;;;;;73.97;55.60;;;29.50;99.90;;;;;;5024195;28;20028;-68
2022/01/25 11:31:06;;;;;;;108.85;71.05;;;29.50;99.90;;;;;;5035028;28;20065;-67
2022/01/25 11:33:33;;;;;;;;;;;29.40;99.90;;;;;;5035222;28;20055;-69
2022/01/25 11:36:05;;;;;;;30.65;19.30;;;29.50;99.90;;;;;;5033645;28;19905;-69
2022/01/25 11:38:33;;;;;;;;;;;29.50;99.90;;;;;;5035502;28;20435;-67
2022/01/25 11:40:59;;;;;;;32.78;22.02;;;29.40;99.90;;;;;;5034460;28;19917;-68
2022/01/25 11:43:26;;;;;;;32.95;22.55;;;29.40;99.90;;;;;;5034700;28;20026;-68
2022/01/25 11:46:02;;;;;;;40.08;22.15;;;29.40;99.90;;;;;;5030405;28;20022;-67
2022/01/25 11:48:44;;;;;;;37.70;22.23;;;29.40;99.90;;;;;;5034702;28;20033;-69
2022/01/25 11:51:20;;;;;;;52.65;29.13;;;29.40;99.90;;;;;;5034586;28;20029;-68
2022/01/25 11:53:50;;;;;;;43.42;28.70;;;29.30;99.90;;;;;;5034269;28;20502;-68
2022/01/25 11:56:18;;;;;;;48.55;29.67;;;29.40;99.90;;;;;;5034894;28;20037;-68
2022/01/25 11:58:54;;;;;;;51.92;29.50;;;29.30;99.90;;;;;;5034651;28;20041;-68
2022/01/25 12:01:24;;;;;;;37.35;22.90;;;29.20;99.90;;;;;;5034757;28;20030;-68
2022/01/25 12:03:56;;;;;;;32.30;19.73;;;29.10;99.90;;;;;;5034226;28;20025;-67
2022/01/25 12:06:31;;;;;;;;;;;29.10;99.90;;;;;;5027914;28;20107;-67
2022/01/25 12:11:39;;;;;;;32.58;18.65;;;29.10;99.90;;;;;;5029423;28;20029;-68
2022/01/25 12:14:26;;;;;;;28.45;18.02;;;29.20;99.90;;;;;;5028119;28;20028;-67
2022/01/25 12:17:04;;;;;;;33.63;18.38;;;29.20;99.90;;;;;;5032111;28;20493;-69
2022/01/25 12:19:46;;;;;;;30.75;18.40;;;29.10;99.90;;;;;;5032090;28;20394;-67
2022/01/25 12:22:15;;;;;;;36.35;19.80;;;28.90;99.90;;;;;;5017738;28;20024;-69
2022/01/25 12:24:48;;;;;;;30.40;19.27;;;28.90;99.90;;;;;;5033915;28;20034;-70
2022/01/25 12:27:22;;;;;;;29.17;18.75;;;28.90;99.90;;;;;;5033089;28;20112;-69
2022/01/25 12:30:00;;;;;;;31.70;18.65;;;28.90;99.90;;;;;;5033988;28;20017;-66
2022/01/25 12:32:35;;;;;;;29.48;18.10;;;28.90;99.90;;;;;;5034077;28;20034;-66
2022/01/25 12:35:11;;;;;;;27.15;18.05;;;28.90;99.90;;;;;;5033903;28;20083;-67
2022/01/25 12:37:44;;;;;;;32.72;19.08;;;28.90;99.90;;;;;;5034226;28;20026;-67
2022/01/25 12:40:32;;;;;;;29.25;18.75;;;28.90;99.90;;;;;;5031474;28;20025;-66
2022/01/25 12:43:14;;;;;;;25.10;17.23;;;28.90;99.90;;;;;;5033389;28;20144;-68
2022/01/25 12:45:58;;;;;;;25.67;16.88;;;28.90;99.90;;;;;;5033763;28;20440;-68
2022/01/25 12:48:28;;;;;;;27.85;16.73;;;28.90;99.90;;;;;;5033523;28;20021;-67
2022/01/25 12:50:58;;;;;;;30.88;16.80;;;28.80;99.90;;;;;;5033723;28;20121;-68
2022/01/25 12:53:28;;;;;;;29.63;18.38;;;28.90;99.90;;;;;;5033626;28;20072;-68
2022/01/25 12:55:58;;;;;;;31.38;18.52;;;28.90;99.90;;;;;;5033527;28;20025;-69
2022/01/25 12:58:28;;;;;;;30.33;18.13;;;28.90;99.90;;;;;;5032536;28;20536;-74
2022/01/25 13:01:01;;;;;;;36.72;20.25;;;28.90;99.90;;;;;;5013633;28;20368;-69
2022/01/25 13:03:30;;;;;;;32.78;19.95;;;28.80;99.90;;;;;;5013975;28;20026;-66
2022/01/25 13:06:13;;;;;;;32.88;20.73;;;28.80;99.90;;;;;;5013681;28;20101;-66
2022/01/25 13:08:49;;;;;;;32.58;20.58;;;29.00;99.90;;;;;;5013747;28;20129;-65
2022/01/25 13:11:27;;;;;;;39.28;22.63;;;29.00;99.90;;;;;;5013878;28;20036;-65
2022/01/25 13:14:32;;;;;;;31.88;20.45;;;28.90;99.90;;;;;;5013322;28;20030;-66
2022/01/25 13:16:56;;;;;;;41.85;24.45;;;28.80;99.90;;;;;;5013375;28;20430;-66
2022/01/25 13:19:33;;;;;;;39.17;22.73;;;28.80;99.90;;;;;;5013281;28;20026;-66
2022/01/25 13:22:05;;;;;;;38.05;21.60;;;28.80;99.90;;;;;;5013542;28;20483;-67
2022/01/25 13:24:38;;;;;;;41.63;22.98;;;28.80;99.90;;;;;;5035831;28;20018;-65
2022/01/25 13:27:12;;;;;;;39.88;22.85;;;28.80;99.90;;;;;;5021976;28;20370;-66
2022/01/25 13:32:21;;;;;;;47.95;25.00;;;28.80;99.90;;;;;;5032996;28;20538;-65
2022/01/25 13:34:55;;;;;;;44.40;26.27;;;28.70;99.90;;;;;;5033066;28;20539;-65
2022/01/25 13:37:22;;;;;;;42.35;24.77;;;28.70;99.90;;;;;;5032764;28;20439;-66
2022/01/25 13:39:54;;;;;;;47.28;26.23;;;28.60;99.90;;;;;;5032892;28;20151;-67
2022/01/25 13:42:25;;;;;;;;;;;28.60;99.90;;;;;;5025424;28;20160;-67
2022/01/25 13:48:01;;;;;;;37.53;26.75;;;28.70;99.90;;;;;;5023881;28;20057;-67
2022/01/25 13:50:28;;;;;;;87.30;56.63;;;28.80;99.90;;;;;;5021170;28;20056;-66
2022/01/25 13:52:55;;;;;;;74.28;53.95;;;28.60;99.90;;;;;;5025939;28;20039;-67
2022/01/25 13:55:22;;;;;;;131.70;97.38;;;28.50;99.90;;;;;;5019697;28;20033;-67
2022/01/25 13:57:48;;;;;;;98.18;65.88;;;28.50;99.90;;;;;;5032770;28;20490;-66
2022/01/25 14:00:16;;;;;;;37.83;23.02;;;28.60;99.90;;;;;;5033062;28;20068;-68
2022/01/25 14:02:48;;;;;;;43.88;26.17;;;28.50;99.90;;;;;;5029891;28;20030;-68
2022/01/25 14:05:15;;;;;;;;;;;28.40;99.90;;;;;;5033090;28;20100;-66
2022/01/25 14:07:41;;;;;;;78.60;55.95;;;28.40;99.90;;;;;;5044640;28;20006;-66
2022/01/25 14:10:20;;;;;;;84.32;58.42;;;28.50;99.90;;;;;;5032911;28;20520;-66
2022/01/25 14:23:30;;;;;;;27.02;16.63;;;28.50;99.90;;;;;;5032212;28;20024;-67
2022/01/25 14:26:00;;;;;;;25.80;17.85;;;28.50;99.90;;;;;;5031100;28;20037;-66
2022/01/25 14:28:27;;;;;;;30.70;18.60;;;28.40;99.90;;;;;;5033473;28;20035;-67